Portada
METAR-TAF:

METAR-TAF

Aeroports :

Vanua Lava, Vanuatu

latitud: 13-51-06S, longitud: 167-32-13E, altitud: 2 m

Observació

L'informe es va fer fa 1 hora i 41 minuts, a les 03:00 UTC
Vent calma
Temperatura 30°C
Humitat 84%
Pressió 1005 hPa
Visibilitat 10 km o més
Cel ennuvolat a una alçada de 2000 ft
Cel ennuvolat a una alçada de 4500 ft

METAR: NVSC 200300Z 00000KT 9999 BKN020 BKN045 30/27 Q1005

Hora: 15:41 (04:41 UTC)

Pronòstic

L'informe es va fer fa 6 hores i 21 minuts, a les 22:20 UTC
Pronòstic vàlid del 20 a les 00 UTC al 20 a les 24 UTC
Vent 5 kt del Est/Sud-Est
Visibilitat 10 km o més
Núvols disperses a una alçada de 2000 ft
Probabilitat 40%
entre IN i TE UTC
Visibilitat: 9000 m
Cel ennuvolat a una alçada de 1800 ft
Cel cobert a una alçada de 4000 ft
xàfecs de pluja

TAF: NVSC 192220Z 2000/2024 12005KT 9999 SCT020 PROB40 INTER 2000/2006 9000 SHRA BKN018 OVC040

Observacions i pronòstics meteorològics de més de 4000 aeroports (METAR i TAF).

Les estacions disponibles són els punts grocs i vermells al mapa.

Posi el ratolí al punt desitjat per veure el nom de l'estació.

Feu clic per veure les observacions i els pronòstics meteorològics.

Per canviar el mapa: feu clic els botons verds amb una creu de color negre per apropar; al botó verd amb un guió per allunyar la imatge; o en les fletxes verdes per a mapes adjacents.


METAR-TAF: